Dai 8 Tokuharu — JD3710 — position and weather

sailwx.info

Track history (hours):
 
Tides and Currents Weather Stations Pressure Air Temp Water Temp Dewpoint Dewpoint Depression Visibility Wind Speed Wind Dir Waves Ship Positions

Dai 8 Tokuharu

Last reported at 2017-Oct-15 08:48 UTC. Time now 2017-Oct-17 23:54 UTC.
Position N 34°41' E 134°50'.

Length 82 m; draft 5 m.

Type: Cargo ship. MMSI: 431005534.

Date/timePositionNaut miles runAvg speedWind from/ knotsBaromVisibWave heightAir tempDewpointWater temp
2017-Oct-15 08:48N 34°41' E 134°50'1011.9
2017-Oct-15 07:56N 34°37' E 135°01'511.1
2017-Oct-15 07:30N 34°33' E 135°04'612.3
2017-Oct-15 07:00N 34°27' E 135°03'1311.8
2017-Oct-15 05:56N 34°15' E 134°59'510.6
2017-Oct-15 05:30N 34°10' E 134°59'4 0.2
2017-Oct-14 05:40N 34°08' E 134°56'512.4
2017-Oct-14 05:18N 34°12' E 134°57'411.8
2017-Oct-14 04:57N 34°16' E 134°58'611.5
2017-Oct-14 04:27N 34°22' E 134°59'511.8
2017-Oct-14 04:00N 34°27' E 135°01'611.7
2017-Oct-14 03:30N 34°32' E 135°03'8 9.3
2017-Oct-14 02:40N 34°37' E 134°55'412.8
2017-Oct-14 02:22N 34°39' E 134°51'3 0.2
2017-Oct-13 15:30N 34°41' E 134°50'6 9.5
2017-Oct-13 14:54N 34°37' E 134°55'511.1
2017-Oct-13 14:25N 34°37' E 135°01'4 9.5
2017-Oct-13 14:00N 34°35' E 135°05'510.8
2017-Oct-13 13:30N 34°30' E 135°04'611.2
2017-Oct-13 13:00N 34°24' E 135°02'610.7
2017-Oct-13 12:26N 34°18' E 134°60'4 9.9
2017-Oct-13 12:00N 34°14' E 134°59'611.0
2017-Oct-13 11:29N 34°09' E 134°58'3 0.1
2017-Oct-12 06:22N 34°12' E 134°57'1211.1
2017-Oct-12 05:16N 34°24' E 134°60'311.8
2017-Oct-12 04:59N 34°27' E 135°01'611.6
2017-Oct-12 04:29N 34°33' E 135°02'4 8.7
2017-Oct-12 04:00N 34°37' E 135°01'5 9.1
2017-Oct-12 03:29N 34°36' E 134°56'710.3
2017-Oct-12 02:51N 34°40' E 134°50'1 0.2
2017-Oct-11 21:06N 34°41' E 134°50'110.1
2017-Oct-11 21:00N 34°40' E 134°50'6 9.1
2017-Oct-11 20:23N 34°37' E 134°56'5 9.4
2017-Oct-11 19:54N 34°37' E 135°01'4 9.2
2017-Oct-11 19:30N 34°36' E 135°05'5 9.4
2017-Oct-11 19:00N 34°31' E 135°04'611.7
2017-Oct-11 18:30N 34°25' E 135°02'811.7
2017-Oct-11 17:48N 34°18' E 134°59'311.1
2017-Oct-11 17:30N 34°14' E 134°59'611.4
2017-Oct-11 17:00N 34°08' E 134°60'6 0.3
2017-Oct-10 19:06N 34°14' E 134°58'215.0
2017-Oct-10 18:56N 34°16' E 134°58'613.8
2017-Oct-10 18:30N 34°22' E 134°60'712.6
2017-Oct-10 17:59N 34°29' E 135°01'612.4
2017-Oct-10 17:30N 34°34' E 135°03'510.4
2017-Oct-10 16:59N 34°36' E 134°57'712.5
2017-Oct-10 16:27N 34°40' E 134°50'7 0.4
2017-Oct-09 23:32N 34°38' E 134°58'011.9
2017-Oct-09 23:31N 34°38' E 134°58'611.9
2017-Oct-09 23:01N 34°35' E 135°05'611.3
2017-Oct-09 22:31N 34°30' E 135°06'611.0
2017-Oct-09 22:00N 34°25' E 135°03'711.6
2017-Oct-09 21:26N 34°19' E 135°00'410.1
2017-Oct-09 21:01N 34°14' E 134°59'5 9.7
2017-Oct-09 20:29N 34°09' E 134°59'3 0.1
2017-Oct-08 19:39N 34°08' E 134°56'514.0
2017-Oct-08 19:19N 34°13' E 134°58'515.1
2017-Oct-08 18:59N 34°18' E 134°59'613.3
2017-Oct-08 18:30N 34°24' E 134°60'713.1
2017-Oct-08 18:00N 34°30' E 135°02'713.2
2017-Oct-08 17:30N 34°37' E 135°01'814.1
2017-Oct-08 16:58N 34°38' E 134°52'4 0.8
2017-Oct-08 12:42N 34°41' E 134°50'511.9
2017-Oct-08 12:16N 34°37' E 134°54'613.9
2017-Oct-08 11:50N 34°37' E 135°01'413.1
2017-Oct-08 11:30N 34°35' E 135°05'713.2
2017-Oct-08 11:00N 34°28' E 135°03'612.5
2017-Oct-08 10:30N 34°22' E 135°02'612.3
2017-Oct-08 10:00N 34°16' E 134°59'510.9
2017-Oct-08 09:29N 34°11' E 134°58'8 0.2
2017-Oct-06 22:21N 34°19' E 134°59'511.3
2017-Oct-06 21:53N 34°24' E 134°60'411.3
2017-Oct-06 21:30N 34°28' E 135°01'510.8
2017-Oct-06 21:00N 34°33' E 135°03'5 8.9
2017-Oct-06 20:29N 34°37' E 134°59'611.7
2017-Oct-06 19:57N 34°38' E 134°52'4 0.3
2017-Oct-06 06:32N 34°40' E 134°47'012.6
2017-Oct-06 06:30N 34°40' E 134°47'  
Track history (hours):
 
Tides and Currents Weather Stations Pressure Air Temp Water Temp Dewpoint Dewpoint Depression Visibility Wind Speed Wind Dir Waves Ship Positions

Dai 8 Tokuharu

Last reported at 2017-Oct-15 08:48 UTC. Time now 2017-Oct-17 23:54 UTC.
Position N 34°41' E 134°50'.

Length 82 m; draft 5 m.

Type: Cargo ship. MMSI: 431005534.

Date/timePositionNaut miles runAvg speedWind from/ knotsBaromVisibWave heightAir tempDewpointWater temp
2017-Oct-15 08:48N 34°41' E 134°50'1011.9
2017-Oct-15 07:56N 34°37' E 135°01'511.1
2017-Oct-15 07:30N 34°33' E 135°04'612.3
2017-Oct-15 07:00N 34°27' E 135°03'1311.8
2017-Oct-15 05:56N 34°15' E 134°59'510.6
2017-Oct-15 05:30N 34°10' E 134°59'4 0.2
2017-Oct-14 05:40N 34°08' E 134°56'512.4
2017-Oct-14 05:18N 34°12' E 134°57'411.8
2017-Oct-14 04:57N 34°16' E 134°58'611.5
2017-Oct-14 04:27N 34°22' E 134°59'511.8
2017-Oct-14 04:00N 34°27' E 135°01'611.7
2017-Oct-14 03:30N 34°32' E 135°03'8 9.3
2017-Oct-14 02:40N 34°37' E 134°55'412.8
2017-Oct-14 02:22N 34°39' E 134°51'3 0.2
2017-Oct-13 15:30N 34°41' E 134°50'6 9.5
2017-Oct-13 14:54N 34°37' E 134°55'511.1
2017-Oct-13 14:25N 34°37' E 135°01'4 9.5
2017-Oct-13 14:00N 34°35' E 135°05'510.8
2017-Oct-13 13:30N 34°30' E 135°04'611.2
2017-Oct-13 13:00N 34°24' E 135°02'610.7
2017-Oct-13 12:26N 34°18' E 134°60'4 9.9
2017-Oct-13 12:00N 34°14' E 134°59'611.0
2017-Oct-13 11:29N 34°09' E 134°58'3 0.1
2017-Oct-12 06:22N 34°12' E 134°57'1211.1
2017-Oct-12 05:16N 34°24' E 134°60'311.8
2017-Oct-12 04:59N 34°27' E 135°01'611.6
2017-Oct-12 04:29N 34°33' E 135°02'4 8.7
2017-Oct-12 04:00N 34°37' E 135°01'5 9.1
2017-Oct-12 03:29N 34°36' E 134°56'710.3
2017-Oct-12 02:51N 34°40' E 134°50'1 0.2
2017-Oct-11 21:06N 34°41' E 134°50'110.1
2017-Oct-11 21:00N 34°40' E 134°50'6 9.1
2017-Oct-11 20:23N 34°37' E 134°56'5 9.4
2017-Oct-11 19:54N 34°37' E 135°01'4 9.2
2017-Oct-11 19:30N 34°36' E 135°05'5 9.4
2017-Oct-11 19:00N 34°31' E 135°04'611.7
2017-Oct-11 18:30N 34°25' E 135°02'811.7
2017-Oct-11 17:48N 34°18' E 134°59'311.1
2017-Oct-11 17:30N 34°14' E 134°59'611.4
2017-Oct-11 17:00N 34°08' E 134°60'6 0.3
2017-Oct-10 19:06N 34°14' E 134°58'215.0
2017-Oct-10 18:56N 34°16' E 134°58'613.8
2017-Oct-10 18:30N 34°22' E 134°60'712.6
2017-Oct-10 17:59N 34°29' E 135°01'612.4
2017-Oct-10 17:30N 34°34' E 135°03'510.4
2017-Oct-10 16:59N 34°36' E 134°57'712.5
2017-Oct-10 16:27N 34°40' E 134°50'7 0.4
2017-Oct-09 23:32N 34°38' E 134°58'011.9
2017-Oct-09 23:31N 34°38' E 134°58'611.9
2017-Oct-09 23:01N 34°35' E 135°05'611.3
2017-Oct-09 22:31N 34°30' E 135°06'611.0
2017-Oct-09 22:00N 34°25' E 135°03'711.6
2017-Oct-09 21:26N 34°19' E 135°00'410.1
2017-Oct-09 21:01N 34°14' E 134°59'5 9.7
2017-Oct-09 20:29N 34°09' E 134°59'3 0.1
2017-Oct-08 19:39N 34°08' E 134°56'514.0
2017-Oct-08 19:19N 34°13' E 134°58'515.1
2017-Oct-08 18:59N 34°18' E 134°59'613.3
2017-Oct-08 18:30N 34°24' E 134°60'713.1
2017-Oct-08 18:00N 34°30' E 135°02'713.2
2017-Oct-08 17:30N 34°37' E 135°01'814.1
2017-Oct-08 16:58N 34°38' E 134°52'4 0.8
2017-Oct-08 12:42N 34°41' E 134°50'511.9
2017-Oct-08 12:16N 34°37' E 134°54'613.9
2017-Oct-08 11:50N 34°37' E 135°01'413.1
2017-Oct-08 11:30N 34°35' E 135°05'713.2
2017-Oct-08 11:00N 34°28' E 135°03'612.5
2017-Oct-08 10:30N 34°22' E 135°02'612.3
2017-Oct-08 10:00N 34°16' E 134°59'510.9
2017-Oct-08 09:29N 34°11' E 134°58'8 0.2
2017-Oct-06 22:21N 34°19' E 134°59'511.3
2017-Oct-06 21:53N 34°24' E 134°60'411.3
2017-Oct-06 21:30N 34°28' E 135°01'510.8
2017-Oct-06 21:00N 34°33' E 135°03'5 8.9
2017-Oct-06 20:29N 34°37' E 134°59'611.7
2017-Oct-06 19:57N 34°38' E 134°52'4 0.3
2017-Oct-06 06:32N 34°40' E 134°47'012.6
2017-Oct-06 06:30N 34°40' E 134°47'  

Dump ship's entire track history